sensor_id;sensor_type;location;lat;lon;timestamp;P1;durP1;ratioP1;P2;durP2;ratioP2
76589;SDS011;65471;55.908;37.880;2023-02-26T00:01:00;46.33;;;20.10;;
76589;SDS011;65471;55.908;37.880;2023-02-26T00:03:28;40.20;;;20.50;;
76589;SDS011;65471;55.908;37.880;2023-02-26T00:05:59;50.60;;;22.02;;
76589;SDS011;65471;55.908;37.880;2023-02-26T00:08:27;67.40;;;27.77;;
76589;SDS011;65471;55.908;37.880;2023-02-26T00:10:54;45.75;;;20.63;;
76589;SDS011;65471;55.908;37.880;2023-02-26T00:13:21;51.40;;;23.95;;
76589;SDS011;65471;55.908;37.880;2023-02-26T00:15:49;71.10;;;26.30;;
76589;SDS011;65471;55.908;37.880;2023-02-26T00:18:21;169.20;;;54.75;;
76589;SDS011;65471;55.908;37.880;2023-02-26T00:20:49;86.15;;;32.00;;
76589;SDS011;65471;55.908;37.880;2023-02-26T00:23:16;105.05;;;37.05;;
76589;SDS011;65471;55.908;37.880;2023-02-26T00:25:44;124.70;;;43.95;;
76589;SDS011;65471;55.908;37.880;2023-02-26T00:28:12;59.95;;;24.55;;
76589;SDS011;65471;55.908;37.880;2023-02-26T00:30:39;87.28;;;31.38;;
76589;SDS011;65471;55.908;37.880;2023-02-26T00:33:06;136.52;;;45.42;;
76589;SDS011;65471;55.908;37.880;2023-02-26T00:35:33;45.03;;;19.52;;
76589;SDS011;65471;55.908;37.880;2023-02-26T00:38:02;64.38;;;24.65;;
76589;SDS011;65471;55.908;37.880;2023-02-26T00:40:37;58.28;;;24.27;;
76589;SDS011;65471;55.908;37.880;2023-02-26T00:43:06;79.65;;;28.25;;
76589;SDS011;65471;55.908;37.880;2023-02-26T00:45:35;61.60;;;22.58;;
76589;SDS011;65471;55.908;37.880;2023-02-26T00:48:16;51.38;;;20.20;;
76589;SDS011;65471;55.908;37.880;2023-02-26T00:50:58;57.75;;;22.45;;
76589;SDS011;65471;55.908;37.880;2023-02-26T00:53:33;42.65;;;19.65;;
76589;SDS011;65471;55.908;37.880;2023-02-26T00:56:06;54.75;;;22.40;;
76589;SDS011;65471;55.908;37.880;2023-02-26T00:58:33;82.43;;;27.63;;
76589;SDS011;65471;55.908;37.880;2023-02-26T01:01:00;55.92;;;22.50;;
76589;SDS011;65471;55.908;37.880;2023-02-26T01:03:27;54.92;;;22.02;;
76589;SDS011;65471;55.908;37.880;2023-02-26T01:05:54;55.70;;;22.60;;
76589;SDS011;65471;55.908;37.880;2023-02-26T01:11:05;57.97;;;20.02;;
76589;SDS011;65471;55.908;37.880;2023-02-26T01:13:32;57.28;;;21.50;;
76589;SDS011;65471;55.908;37.880;2023-02-26T01:16:04;155.10;;;37.95;;
76589;SDS011;65471;55.908;37.880;2023-02-26T01:18:39;47.88;;;20.40;;
76589;SDS011;65471;55.908;37.880;2023-02-26T01:21:11;56.75;;;20.75;;
76589;SDS011;65471;55.908;37.880;2023-02-26T01:23:44;37.17;;;18.42;;
76589;SDS011;65471;55.908;37.880;2023-02-26T01:28:49;46.22;;;20.30;;
76589;SDS011;65471;55.908;37.880;2023-02-26T01:42:42;37.80;;;14.23;;
76589;SDS011;65471;55.908;37.880;2023-02-26T01:45:12;90.50;;;23.75;;
76589;SDS011;65471;55.908;37.880;2023-02-26T01:50:19;82.75;;;20.92;;
76589;SDS011;65471;55.908;37.880;2023-02-26T01:55:36;50.85;;;17.52;;
76589;SDS011;65471;55.908;37.880;2023-02-26T01:58:03;26.20;;;11.15;;
76589;SDS011;65471;55.908;37.880;2023-02-26T02:00:31;81.90;;;17.58;;
76589;SDS011;65471;55.908;37.880;2023-02-26T02:02:58;18.85;;;10.38;;
76589;SDS011;65471;55.908;37.880;2023-02-26T02:05:32;57.42;;;14.75;;
76589;SDS011;65471;55.908;37.880;2023-02-26T02:08:04;27.70;;;11.10;;
76589;SDS011;65471;55.908;37.880;2023-02-26T02:10:31;16.98;;;8.98;;
76589;SDS011;65471;55.908;37.880;2023-02-26T02:18:32;25.27;;;10.80;;
76589;SDS011;65471;55.908;37.880;2023-02-26T02:24:00;21.08;;;9.02;;
76589;SDS011;65471;55.908;37.880;2023-02-26T02:35:01;9.57;;;7.63;;
76589;SDS011;65471;55.908;37.880;2023-02-26T02:37:32;9.25;;;7.35;;
76589;SDS011;65471;55.908;37.880;2023-02-26T02:40:04;8.80;;;7.93;;
76589;SDS011;65471;55.908;37.880;2023-02-26T02:47:56;8.80;;;7.53;;
76589;SDS011;65471;55.908;37.880;2023-02-26T02:50:29;12.65;;;8.38;;
76589;SDS011;65471;55.908;37.880;2023-02-26T02:53:02;10.00;;;7.63;;
76589;SDS011;65471;55.908;37.880;2023-02-26T02:55:35;9.60;;;7.57;;
76589;SDS011;65471;55.908;37.880;2023-02-26T02:58:06;9.90;;;8.02;;
76589;SDS011;65471;55.908;37.880;2023-02-26T03:00:35;9.00;;;7.57;;
76589;SDS011;65471;55.908;37.880;2023-02-26T03:05:55;7.82;;;6.25;;
76589;SDS011;65471;55.908;37.880;2023-02-26T03:08:23;10.30;;;6.18;;
76589;SDS011;65471;55.908;37.880;2023-02-26T03:10:56;7.97;;;6.88;;
76589;SDS011;65471;55.908;37.880;2023-02-26T03:13:24;6.97;;;6.03;;
76589;SDS011;65471;55.908;37.880;2023-02-26T03:16:05;7.78;;;6.43;;
76589;SDS011;65471;55.908;37.880;2023-02-26T03:18:49;5.63;;;5.20;;
76589;SDS011;65471;55.908;37.880;2023-02-26T03:24:20;5.25;;;4.85;;
76589;SDS011;65471;55.908;37.880;2023-02-26T03:35:26;4.68;;;4.28;;
76589;SDS011;65471;55.908;37.880;2023-02-26T03:40:32;5.03;;;4.65;;
76589;SDS011;65471;55.908;37.880;2023-02-26T03:43:25;5.03;;;4.57;;
76589;SDS011;65471;55.908;37.880;2023-02-26T03:46:24;5.53;;;5.00;;
76589;SDS011;65471;55.908;37.880;2023-02-26T03:48:54;8.77;;;5.40;;
76589;SDS011;65471;55.908;37.880;2023-02-26T03:51:26;7.07;;;5.38;;
76589;SDS011;65471;55.908;37.880;2023-02-26T03:56:37;5.35;;;4.93;;
76589;SDS011;65471;55.908;37.880;2023-02-26T03:59:07;6.70;;;6.00;;
76589;SDS011;65471;55.908;37.880;2023-02-26T04:01:36;8.98;;;7.00;;
76589;SDS011;65471;55.908;37.880;2023-02-26T04:04:31;8.02;;;7.25;;
76589;SDS011;65471;55.908;37.880;2023-02-26T04:07:02;7.82;;;7.03;;
76589;SDS011;65471;55.908;37.880;2023-02-26T04:09:29;7.68;;;6.90;;
76589;SDS011;65471;55.908;37.880;2023-02-26T04:11:56;8.35;;;7.50;;
76589;SDS011;65471;55.908;37.880;2023-02-26T04:14:24;12.85;;;7.60;;
76589;SDS011;65471;55.908;37.880;2023-02-26T04:16:51;8.98;;;6.50;;
76589;SDS011;65471;55.908;37.880;2023-02-26T04:19:17;7.97;;;7.28;;
76589;SDS011;65471;55.908;37.880;2023-02-26T04:21:44;7.50;;;6.82;;
76589;SDS011;65471;55.908;37.880;2023-02-26T04:24:11;8.43;;;7.72;;
76589;SDS011;65471;55.908;37.880;2023-02-26T04:26:38;8.90;;;8.05;;
76589;SDS011;65471;55.908;37.880;2023-02-26T04:29:05;8.38;;;7.50;;
76589;SDS011;65471;55.908;37.880;2023-02-26T04:31:32;8.98;;;7.68;;
76589;SDS011;65471;55.908;37.880;2023-02-26T04:33:59;9.68;;;8.77;;
76589;SDS011;65471;55.908;37.880;2023-02-26T04:36:25;9.40;;;7.95;;
76589;SDS011;65471;55.908;37.880;2023-02-26T04:38:53;8.10;;;7.47;;
76589;SDS011;65471;55.908;37.880;2023-02-26T04:41:19;12.55;;;7.78;;
76589;SDS011;65471;55.908;37.880;2023-02-26T04:43:47;10.05;;;7.90;;
76589;SDS011;65471;55.908;37.880;2023-02-26T04:46:14;9.10;;;8.30;;
76589;SDS011;65471;55.908;37.880;2023-02-26T04:48:40;9.90;;;7.30;;
76589;SDS011;65471;55.908;37.880;2023-02-26T04:51:07;7.97;;;7.30;;
76589;SDS011;65471;55.908;37.880;2023-02-26T04:53:34;8.75;;;7.95;;
76589;SDS011;65471;55.908;37.880;2023-02-26T04:56:01;9.98;;;7.47;;
76589;SDS011;65471;55.908;37.880;2023-02-26T04:58:28;11.30;;;8.52;;
76589;SDS011;65471;55.908;37.880;2023-02-26T05:00:55;10.80;;;8.68;;
76589;SDS011;65471;55.908;37.880;2023-02-26T05:03:23;8.70;;;7.85;;
76589;SDS011;65471;55.908;37.880;2023-02-26T05:05:50;11.02;;;8.68;;
76589;SDS011;65471;55.908;37.880;2023-02-26T05:08:17;12.13;;;8.82;;
76589;SDS011;65471;55.908;37.880;2023-02-26T05:10:44;12.77;;;9.57;;
76589;SDS011;65471;55.908;37.880;2023-02-26T05:13:11;9.52;;;8.55;;
76589;SDS011;65471;55.908;37.880;2023-02-26T05:15:37;14.20;;;9.82;;
76589;SDS011;65471;55.908;37.880;2023-02-26T05:18:04;11.38;;;9.60;;
76589;SDS011;65471;55.908;37.880;2023-02-26T05:20:31;11.93;;;9.25;;
76589;SDS011;65471;55.908;37.880;2023-02-26T05:22:58;13.60;;;9.68;;
76589;SDS011;65471;55.908;37.880;2023-02-26T05:25:24;22.08;;;11.60;;
76589;SDS011;65471;55.908;37.880;2023-02-26T05:27:51;22.65;;;11.45;;
76589;SDS011;65471;55.908;37.880;2023-02-26T05:30:18;13.13;;;9.82;;
76589;SDS011;65471;55.908;37.880;2023-02-26T05:32:45;12.05;;;10.70;;
76589;SDS011;65471;55.908;37.880;2023-02-26T05:35:12;13.98;;;11.10;;
76589;SDS011;65471;55.908;37.880;2023-02-26T05:37:39;14.98;;;10.88;;
76589;SDS011;65471;55.908;37.880;2023-02-26T05:40:07;12.48;;;10.40;;
76589;SDS011;65471;55.908;37.880;2023-02-26T05:42:38;15.82;;;9.27;;
76589;SDS011;65471;55.908;37.880;2023-02-26T05:45:05;11.07;;;9.10;;
76589;SDS011;65471;55.908;37.880;2023-02-26T05:47:33;12.23;;;8.73;;
76589;SDS011;65471;55.908;37.880;2023-02-26T05:50:00;13.38;;;8.63;;
76589;SDS011;65471;55.908;37.880;2023-02-26T05:52:29;11.15;;;8.07;;
76589;SDS011;65471;55.908;37.880;2023-02-26T05:54:56;17.50;;;7.60;;
76589;SDS011;65471;55.908;37.880;2023-02-26T05:57:23;13.18;;;7.90;;
76589;SDS011;65471;55.908;37.880;2023-02-26T05:59:50;6.68;;;5.78;;
76589;SDS011;65471;55.908;37.880;2023-02-26T06:02:16;9.80;;;5.50;;
76589;SDS011;65471;55.908;37.880;2023-02-26T06:04:43;5.82;;;5.35;;
76589;SDS011;65471;55.908;37.880;2023-02-26T06:07:10;9.13;;;5.97;;
76589;SDS011;65471;55.908;37.880;2023-02-26T06:09:37;5.40;;;4.63;;
76589;SDS011;65471;55.908;37.880;2023-02-26T06:12:04;4.05;;;3.85;;
76589;SDS011;65471;55.908;37.880;2023-02-26T06:14:32;7.18;;;3.80;;
76589;SDS011;65471;55.908;37.880;2023-02-26T06:16:59;3.70;;;3.40;;
76589;SDS011;65471;55.908;37.880;2023-02-26T06:19:26;5.05;;;4.65;;
76589;SDS011;65471;55.908;37.880;2023-02-26T06:21:53;3.63;;;3.25;;
76589;SDS011;65471;55.908;37.880;2023-02-26T06:24:19;6.95;;;3.50;;
76589;SDS011;65471;55.908;37.880;2023-02-26T06:26:46;4.13;;;3.67;;
76589;SDS011;65471;55.908;37.880;2023-02-26T06:29:14;4.88;;;3.22;;
76589;SDS011;65471;55.908;37.880;2023-02-26T06:31:43;3.53;;;3.30;;
76589;SDS011;65471;55.908;37.880;2023-02-26T06:34:11;3.03;;;2.70;;
76589;SDS011;65471;55.908;37.880;2023-02-26T06:36:41;3.95;;;3.65;;
76589;SDS011;65471;55.908;37.880;2023-02-26T06:39:08;3.40;;;2.50;;
76589;SDS011;65471;55.908;37.880;2023-02-26T06:41:34;6.65;;;4.35;;
76589;SDS011;65471;55.908;37.880;2023-02-26T06:44:02;3.47;;;3.28;;
76589;SDS011;65471;55.908;37.880;2023-02-26T06:46:29;3.17;;;2.88;;
76589;SDS011;65471;55.908;37.880;2023-02-26T06:48:56;3.47;;;3.22;;
76589;SDS011;65471;55.908;37.880;2023-02-26T06:51:23;5.32;;;3.22;;
76589;SDS011;65471;55.908;37.880;2023-02-26T06:53:50;3.40;;;3.10;;
76589;SDS011;65471;55.908;37.880;2023-02-26T06:56:16;7.88;;;3.47;;
76589;SDS011;65471;55.908;37.880;2023-02-26T06:58:43;4.20;;;3.80;;
76589;SDS011;65471;55.908;37.880;2023-02-26T07:01:10;3.45;;;3.25;;
76589;SDS011;65471;55.908;37.880;2023-02-26T07:03:37;3.33;;;3.03;;
76589;SDS011;65471;55.908;37.880;2023-02-26T07:06:05;3.60;;;3.30;;
76589;SDS011;65471;55.908;37.880;2023-02-26T07:08:52;3.60;;;3.28;;
76589;SDS011;65471;55.908;37.880;2023-02-26T07:11:19;3.88;;;3.67;;
76589;SDS011;65471;55.908;37.880;2023-02-26T07:13:46;8.32;;;3.72;;
76589;SDS011;65471;55.908;37.880;2023-02-26T07:16:13;4.10;;;3.63;;
76589;SDS011;65471;55.908;37.880;2023-02-26T07:18:40;5.00;;;3.47;;
76589;SDS011;65471;55.908;37.880;2023-02-26T07:21:06;5.47;;;3.28;;
76589;SDS011;65471;55.908;37.880;2023-02-26T07:23:33;9.18;;;3.55;;
76589;SDS011;65471;55.908;37.880;2023-02-26T07:26:00;3.95;;;3.55;;
76589;SDS011;65471;55.908;37.880;2023-02-26T07:28:28;4.10;;;3.80;;
76589;SDS011;65471;55.908;37.880;2023-02-26T07:30:55;3.90;;;3.70;;
76589;SDS011;65471;55.908;37.880;2023-02-26T07:33:22;3.78;;;3.47;;
76589;SDS011;65471;55.908;37.880;2023-02-26T07:35:50;3.95;;;3.75;;
76589;SDS011;65471;55.908;37.880;2023-02-26T07:38:17;9.98;;;4.20;;
76589;SDS011;65471;55.908;37.880;2023-02-26T07:40:45;4.10;;;3.65;;
76589;SDS011;65471;55.908;37.880;2023-02-26T07:43:12;3.67;;;3.47;;
76589;SDS011;65471;55.908;37.880;2023-02-26T07:45:39;5.93;;;4.28;;
76589;SDS011;65471;55.908;37.880;2023-02-26T07:48:06;4.82;;;4.40;;
76589;SDS011;65471;55.908;37.880;2023-02-26T07:50:33;4.90;;;3.22;;
76589;SDS011;65471;55.908;37.880;2023-02-26T07:53:00;4.15;;;3.85;;
76589;SDS011;65471;55.908;37.880;2023-02-26T07:55:26;5.72;;;4.25;;
76589;SDS011;65471;55.908;37.880;2023-02-26T07:57:53;4.38;;;3.15;;
76589;SDS011;65471;55.908;37.880;2023-02-26T08:00:20;3.80;;;3.50;;
76589;SDS011;65471;55.908;37.880;2023-02-26T08:02:47;4.13;;;3.75;;
76589;SDS011;65471;55.908;37.880;2023-02-26T08:05:14;3.40;;;3.25;;
76589;SDS011;65471;55.908;37.880;2023-02-26T08:07:41;7.40;;;3.70;;
76589;SDS011;65471;55.908;37.880;2023-02-26T08:10:08;3.85;;;3.55;;
76589;SDS011;65471;55.908;37.880;2023-02-26T08:12:36;3.67;;;3.47;;
76589;SDS011;65471;55.908;37.880;2023-02-26T08:15:03;4.32;;;3.90;;
76589;SDS011;65471;55.908;37.880;2023-02-26T08:17:31;9.65;;;3.78;;
76589;SDS011;65471;55.908;37.880;2023-02-26T08:19:58;4.35;;;4.00;;
76589;SDS011;65471;55.908;37.880;2023-02-26T08:22:24;5.75;;;3.67;;
76589;SDS011;65471;55.908;37.880;2023-02-26T08:24:52;3.75;;;3.55;;
76589;SDS011;65471;55.908;37.880;2023-02-26T08:27:19;4.75;;;3.80;;
76589;SDS011;65471;55.908;37.880;2023-02-26T08:29:45;3.10;;;2.90;;
76589;SDS011;65471;55.908;37.880;2023-02-26T08:32:15;5.07;;;3.15;;
76589;SDS011;65471;55.908;37.880;2023-02-26T08:34:45;2.90;;;2.70;;
76589;SDS011;65471;55.908;37.880;2023-02-26T08:37:12;3.45;;;3.25;;
76589;SDS011;65471;55.908;37.880;2023-02-26T08:39:39;3.30;;;3.10;;
76589;SDS011;65471;55.908;37.880;2023-02-26T08:42:07;3.75;;;3.42;;
76589;SDS011;65471;55.908;37.880;2023-02-26T08:44:34;3.83;;;3.05;;
76589;SDS011;65471;55.908;37.880;2023-02-26T08:47:01;4.88;;;3.00;;
76589;SDS011;65471;55.908;37.880;2023-02-26T08:49:29;3.50;;;3.30;;
76589;SDS011;65471;55.908;37.880;2023-02-26T08:51:56;8.13;;;3.20;;
76589;SDS011;65471;55.908;37.880;2023-02-26T08:54:23;3.40;;;3.10;;
76589;SDS011;65471;55.908;37.880;2023-02-26T08:56:50;6.30;;;3.15;;
76589;SDS011;65471;55.908;37.880;2023-02-26T08:59:18;3.40;;;3.20;;
76589;SDS011;65471;55.908;37.880;2023-02-26T09:01:45;3.40;;;3.20;;
76589;SDS011;65471;55.908;37.880;2023-02-26T09:04:12;4.05;;;3.70;;
76589;SDS011;65471;55.908;37.880;2023-02-26T09:06:39;2.72;;;2.53;;
76589;SDS011;65471;55.908;37.880;2023-02-26T09:09:06;4.50;;;3.05;;
76589;SDS011;65471;55.908;37.880;2023-02-26T09:11:33;2.70;;;2.45;;
76589;SDS011;65471;55.908;37.880;2023-02-26T09:14:02;4.95;;;2.63;;
76589;SDS011;65471;55.908;37.880;2023-02-26T09:16:29;3.40;;;3.13;;
76589;SDS011;65471;55.908;37.880;2023-02-26T09:18:57;4.38;;;2.92;;
76589;SDS011;65471;55.908;37.880;2023-02-26T09:21:24;4.30;;;2.90;;
76589;SDS011;65471;55.908;37.880;2023-02-26T09:23:51;2.33;;;2.22;;
76589;SDS011;65471;55.908;37.880;2023-02-26T09:26:18;2.60;;;2.42;;
76589;SDS011;65471;55.908;37.880;2023-02-26T09:28:44;2.45;;;2.35;;
76589;SDS011;65471;55.908;37.880;2023-02-26T09:31:11;2.85;;;2.72;;
76589;SDS011;65471;55.908;37.880;2023-02-26T09:33:38;4.05;;;3.20;;
76589;SDS011;65471;55.908;37.880;2023-02-26T09:36:05;2.75;;;2.55;;
76589;SDS011;65471;55.908;37.880;2023-02-26T09:38:33;6.55;;;3.00;;
76589;SDS011;65471;55.908;37.880;2023-02-26T09:41:02;4.45;;;3.90;;
76589;SDS011;65471;55.908;37.880;2023-02-26T09:43:51;6.55;;;4.13;;
76589;SDS011;65471;55.908;37.880;2023-02-26T09:49:48;5.47;;;4.53;;
76589;SDS011;65471;55.908;37.880;2023-02-26T09:54:47;2.75;;;2.55;;
76589;SDS011;65471;55.908;37.880;2023-02-26T09:57:28;2.10;;;2.00;;
76589;SDS011;65471;55.908;37.880;2023-02-26T09:59:55;2.75;;;2.50;;
76589;SDS011;65471;55.908;37.880;2023-02-26T10:02:31;3.17;;;2.03;;
76589;SDS011;65471;55.908;37.880;2023-02-26T10:05:22;2.10;;;2.00;;
76589;SDS011;65471;55.908;37.880;2023-02-26T10:07:59;6.70;;;2.30;;
76589;SDS011;65471;55.908;37.880;2023-02-26T10:12:59;2.70;;;2.60;;
76589;SDS011;65471;55.908;37.880;2023-02-26T10:15:36;3.63;;;2.25;;
76589;SDS011;65471;55.908;37.880;2023-02-26T10:18:18;2.80;;;2.38;;
76589;SDS011;65471;55.908;37.880;2023-02-26T10:21:05;2.65;;;2.38;;
76589;SDS011;65471;55.908;37.880;2023-02-26T10:23:45;2.25;;;2.15;;
76589;SDS011;65471;55.908;37.880;2023-02-26T10:26:22;2.30;;;2.20;;
76589;SDS011;65471;55.908;37.880;2023-02-26T10:31:32;2.70;;;2.45;;
76589;SDS011;65471;55.908;37.880;2023-02-26T10:34:28;2.33;;;2.22;;
76589;SDS011;65471;55.908;37.880;2023-02-26T10:39:59;2.90;;;2.70;;
76589;SDS011;65471;55.908;37.880;2023-02-26T10:45:29;2.65;;;2.55;;
76589;SDS011;65471;55.908;37.880;2023-02-26T10:50:59;2.35;;;2.25;;
76589;SDS011;65471;55.908;37.880;2023-02-26T10:53:30;3.20;;;2.35;;
76589;SDS011;65471;55.908;37.880;2023-02-26T10:56:08;3.40;;;2.80;;
76589;SDS011;65471;55.908;37.880;2023-02-26T10:58:39;3.15;;;2.45;;
76589;SDS011;65471;55.908;37.880;2023-02-26T11:01:12;3.45;;;2.90;;
76589;SDS011;65471;55.908;37.880;2023-02-26T11:03:45;2.75;;;2.63;;
76589;SDS011;65471;55.908;37.880;2023-02-26T11:06:19;3.45;;;3.15;;
76589;SDS011;65471;55.908;37.880;2023-02-26T11:08:51;3.28;;;2.78;;
76589;SDS011;65471;55.908;37.880;2023-02-26T11:11:54;3.40;;;2.60;;
76589;SDS011;65471;55.908;37.880;2023-02-26T11:14:18;2.50;;;2.30;;
76589;SDS011;65471;55.908;37.880;2023-02-26T11:16:57;2.78;;;2.58;;
76589;SDS011;65471;55.908;37.880;2023-02-26T11:19:27;2.63;;;2.42;;
76589;SDS011;65471;55.908;37.880;2023-02-26T11:22:01;14.82;;;3.03;;
76589;SDS011;65471;55.908;37.880;2023-02-26T11:24:33;2.80;;;2.60;;
76589;SDS011;65471;55.908;37.880;2023-02-26T11:27:04;2.47;;;2.38;;
76589;SDS011;65471;55.908;37.880;2023-02-26T11:29:40;3.50;;;3.13;;
76589;SDS011;65471;55.908;37.880;2023-02-26T11:32:18;9.60;;;2.80;;
76589;SDS011;65471;55.908;37.880;2023-02-26T11:34:48;2.53;;;2.35;;
76589;SDS011;65471;55.908;37.880;2023-02-26T11:37:20;2.55;;;2.35;;
76589;SDS011;65471;55.908;37.880;2023-02-26T11:40:33;2.88;;;2.67;;
76589;SDS011;65471;55.908;37.880;2023-02-26T11:42:51;2.80;;;2.60;;
76589;SDS011;65471;55.908;37.880;2023-02-26T11:45:20;3.03;;;2.83;;
76589;SDS011;65471;55.908;37.880;2023-02-26T11:47:48;3.08;;;2.75;;
76589;SDS011;65471;55.908;37.880;2023-02-26T11:50:20;2.55;;;2.40;;
76589;SDS011;65471;55.908;37.880;2023-02-26T11:53:05;2.40;;;2.30;;
76589;SDS011;65471;55.908;37.880;2023-02-26T11:55:43;2.70;;;2.60;;
76589;SDS011;65471;55.908;37.880;2023-02-26T11:58:19;8.18;;;2.85;;
76589;SDS011;65471;55.908;37.880;2023-02-26T12:00:48;3.38;;;2.72;;
76589;SDS011;65471;55.908;37.880;2023-02-26T12:03:22;2.85;;;2.67;;
76589;SDS011;65471;55.908;37.880;2023-02-26T12:05:54;2.60;;;2.40;;
76589;SDS011;65471;55.908;37.880;2023-02-26T12:08:24;5.40;;;2.90;;
76589;SDS011;65471;55.908;37.880;2023-02-26T12:16:59;2.65;;;2.45;;
76589;SDS011;65471;55.908;37.880;2023-02-26T12:20:22;2.30;;;2.20;;
76589;SDS011;65471;55.908;37.880;2023-02-26T12:23:05;3.58;;;3.08;;
76589;SDS011;65471;55.908;37.880;2023-02-26T12:36:56;2.47;;;2.28;;
76589;SDS011;65471;55.908;37.880;2023-02-26T12:48:00;2.60;;;2.50;;
76589;SDS011;65471;55.908;37.880;2023-02-26T13:21:03;3.92;;;2.83;;
76589;SDS011;65471;55.908;37.880;2023-02-26T13:23:39;3.45;;;2.80;;
76589;SDS011;65471;55.908;37.880;2023-02-26T13:26:14;3.08;;;2.88;;
76589;SDS011;65471;55.908;37.880;2023-02-26T13:31:32;3.20;;;3.00;;
76589;SDS011;65471;55.908;37.880;2023-02-26T13:34:13;4.45;;;2.95;;
76589;SDS011;65471;55.908;37.880;2023-02-26T13:36:44;2.85;;;2.72;;
76589;SDS011;65471;55.908;37.880;2023-02-26T13:42:13;2.90;;;2.70;;
76589;SDS011;65471;55.908;37.880;2023-02-26T13:53:32;8.23;;;4.95;;
76589;SDS011;65471;55.908;37.880;2023-02-26T13:56:04;4.13;;;3.75;;
76589;SDS011;65471;55.908;37.880;2023-02-26T13:58:54;4.88;;;4.57;;
76589;SDS011;65471;55.908;37.880;2023-02-26T14:01:56;8.32;;;4.20;;
76589;SDS011;65471;55.908;37.880;2023-02-26T14:04:28;6.03;;;3.90;;
76589;SDS011;65471;55.908;37.880;2023-02-26T14:07:45;23.15;;;4.43;;
76589;SDS011;65471;55.908;37.880;2023-02-26T14:13:21;13.35;;;6.05;;
76589;SDS011;65471;55.908;37.880;2023-02-26T14:24:04;7.07;;;6.45;;
76589;SDS011;65471;55.908;37.880;2023-02-26T14:26:44;11.73;;;8.05;;
76589;SDS011;65471;55.908;37.880;2023-02-26T14:29:19;7.90;;;7.10;;
76589;SDS011;65471;55.908;37.880;2023-02-26T14:34:20;6.88;;;6.20;;
76589;SDS011;65471;55.908;37.880;2023-02-26T14:36:51;7.68;;;7.07;;
76589;SDS011;65471;55.908;37.880;2023-02-26T14:39:26;14.05;;;7.97;;
76589;SDS011;65471;55.908;37.880;2023-02-26T14:42:03;11.88;;;7.32;;
76589;SDS011;65471;55.908;37.880;2023-02-26T14:45:17;14.15;;;8.20;;
76589;SDS011;65471;55.908;37.880;2023-02-26T14:47:44;12.77;;;8.32;;
76589;SDS011;65471;55.908;37.880;2023-02-26T14:50:21;10.63;;;9.43;;
76589;SDS011;65471;55.908;37.880;2023-02-26T15:25:42;19.25;;;11.13;;
76589;SDS011;65471;55.908;37.880;2023-02-26T15:28:19;9.82;;;7.70;;
76589;SDS011;65471;55.908;37.880;2023-02-26T15:30:51;13.88;;;10.02;;
76589;SDS011;65471;55.908;37.880;2023-02-26T15:33:19;21.35;;;10.88;;
76589;SDS011;65471;55.908;37.880;2023-02-26T15:38:17;14.40;;;9.50;;
76589;SDS011;65471;55.908;37.880;2023-02-26T15:40:44;18.10;;;10.65;;
76589;SDS011;65471;55.908;37.880;2023-02-26T15:43:14;15.18;;;10.38;;
76589;SDS011;65471;55.908;37.880;2023-02-26T15:45:43;23.25;;;10.75;;
76589;SDS011;65471;55.908;37.880;2023-02-26T15:48:13;15.52;;;10.48;;
76589;SDS011;65471;55.908;37.880;2023-02-26T15:50:44;18.17;;;10.82;;
76589;SDS011;65471;55.908;37.880;2023-02-26T15:53:21;16.20;;;11.20;;
76589;SDS011;65471;55.908;37.880;2023-02-26T15:58:34;15.55;;;9.27;;
76589;SDS011;65471;55.908;37.880;2023-02-26T16:01:05;14.93;;;10.43;;
76589;SDS011;65471;55.908;37.880;2023-02-26T16:03:33;16.20;;;10.25;;
76589;SDS011;65471;55.908;37.880;2023-02-26T16:06:05;11.15;;;9.38;;
76589;SDS011;65471;55.908;37.880;2023-02-26T16:08:36;16.75;;;10.85;;
76589;SDS011;65471;55.908;37.880;2023-02-26T16:11:04;8.38;;;7.57;;
76589;SDS011;65471;55.908;37.880;2023-02-26T16:13:32;13.85;;;8.13;;
76589;SDS011;65471;55.908;37.880;2023-02-26T16:16:15;16.75;;;10.77;;
76589;SDS011;65471;55.908;37.880;2023-02-26T16:18:52;20.42;;;11.32;;
76589;SDS011;65471;55.908;37.880;2023-02-26T16:21:32;25.40;;;11.25;;
76589;SDS011;65471;55.908;37.880;2023-02-26T16:24:02;13.82;;;8.57;;
76589;SDS011;65471;55.908;37.880;2023-02-26T16:26:37;13.93;;;9.07;;
76589;SDS011;65471;55.908;37.880;2023-02-26T16:29:11;14.45;;;8.13;;
76589;SDS011;65471;55.908;37.880;2023-02-26T16:31:45;30.38;;;12.27;;
76589;SDS011;65471;55.908;37.880;2023-02-26T16:36:53;12.55;;;9.65;;
76589;SDS011;65471;55.908;37.880;2023-02-26T16:39:25;17.52;;;10.93;;
76589;SDS011;65471;55.908;37.880;2023-02-26T16:42:07;26.75;;;15.30;;
76589;SDS011;65471;55.908;37.880;2023-02-26T16:45:01;11.15;;;7.60;;
76589;SDS011;65471;55.908;37.880;2023-02-26T16:47:29;24.92;;;12.10;;
76589;SDS011;65471;55.908;37.880;2023-02-26T16:49:57;29.75;;;13.55;;
76589;SDS011;65471;55.908;37.880;2023-02-26T16:52:24;24.10;;;12.65;;
76589;SDS011;65471;55.908;37.880;2023-02-26T16:54:53;20.73;;;12.05;;
76589;SDS011;65471;55.908;37.880;2023-02-26T16:57:31;27.63;;;13.48;;
76589;SDS011;65471;55.908;37.880;2023-02-26T17:00:06;23.20;;;11.95;;
76589;SDS011;65471;55.908;37.880;2023-02-26T17:02:44;22.42;;;11.70;;
76589;SDS011;65471;55.908;37.880;2023-02-26T17:05:17;13.52;;;8.85;;
76589;SDS011;65471;55.908;37.880;2023-02-26T17:07:54;18.45;;;9.98;;
76589;SDS011;65471;55.908;37.880;2023-02-26T17:10:34;11.43;;;9.00;;
76589;SDS011;65471;55.908;37.880;2023-02-26T17:13:14;10.93;;;9.02;;
76589;SDS011;65471;55.908;37.880;2023-02-26T17:15:43;15.88;;;10.27;;
76589;SDS011;65471;55.908;37.880;2023-02-26T17:18:12;21.33;;;10.55;;
76589;SDS011;65471;55.908;37.880;2023-02-26T17:20:39;19.10;;;10.63;;
76589;SDS011;65471;55.908;37.880;2023-02-26T17:23:07;12.15;;;10.00;;
76589;SDS011;65471;55.908;37.880;2023-02-26T17:25:35;14.38;;;10.18;;
76589;SDS011;65471;55.908;37.880;2023-02-26T17:28:06;9.82;;;6.35;;
76589;SDS011;65471;55.908;37.880;2023-02-26T17:30:35;9.38;;;8.07;;
76589;SDS011;65471;55.908;37.880;2023-02-26T17:33:03;15.07;;;9.43;;
76589;SDS011;65471;55.908;37.880;2023-02-26T17:35:33;6.95;;;6.15;;
76589;SDS011;65471;55.908;37.880;2023-02-26T17:38:00;14.63;;;9.32;;
76589;SDS011;65471;55.908;37.880;2023-02-26T17:40:28;14.95;;;9.93;;
76589;SDS011;65471;55.908;37.880;2023-02-26T17:42:59;14.30;;;8.48;;
76589;SDS011;65471;55.908;37.880;2023-02-26T17:45:28;16.30;;;9.98;;
76589;SDS011;65471;55.908;37.880;2023-02-26T17:47:55;20.02;;;10.18;;
76589;SDS011;65471;55.908;37.880;2023-02-26T17:50:35;13.57;;;8.80;;
76589;SDS011;65471;55.908;37.880;2023-02-26T17:53:07;15.13;;;9.35;;
76589;SDS011;65471;55.908;37.880;2023-02-26T17:55:35;16.10;;;7.85;;
76589;SDS011;65471;55.908;37.880;2023-02-26T17:58:16;14.23;;;8.70;;
76589;SDS011;65471;55.908;37.880;2023-02-26T18:00:45;14.18;;;9.30;;
76589;SDS011;65471;55.908;37.880;2023-02-26T18:03:15;15.45;;;8.63;;
76589;SDS011;65471;55.908;37.880;2023-02-26T18:05:42;11.15;;;8.30;;
76589;SDS011;65471;55.908;37.880;2023-02-26T18:08:22;11.27;;;7.30;;
76589;SDS011;65471;55.908;37.880;2023-02-26T18:13:16;11.80;;;8.23;;
76589;SDS011;65471;55.908;37.880;2023-02-26T18:15:43;9.65;;;8.48;;
76589;SDS011;65471;55.908;37.880;2023-02-26T18:18:10;18.77;;;8.38;;
76589;SDS011;65471;55.908;37.880;2023-02-26T18:20:38;11.02;;;8.27;;